sensor_id;sensor_type;location;lat;lon;timestamp;P1;durP1;ratioP1;P2;durP2;ratioP2
35294;SDS011;21413;48.032;7.764;2023-05-29T00:01:25;11.97;;;7.70;;
35294;SDS011;21413;48.032;7.764;2023-05-29T00:03:52;20.10;;;7.33;;
35294;SDS011;21413;48.032;7.764;2023-05-29T00:06:20;8.60;;;7.60;;
35294;SDS011;21413;48.032;7.764;2023-05-29T00:08:46;12.00;;;7.73;;
35294;SDS011;21413;48.032;7.764;2023-05-29T00:11:15;10.17;;;7.63;;
35294;SDS011;21413;48.032;7.764;2023-05-29T00:13:41;12.37;;;8.00;;
35294;SDS011;21413;48.032;7.764;2023-05-29T00:16:07;11.60;;;7.47;;
35294;SDS011;21413;48.032;7.764;2023-05-29T00:18:34;9.07;;;7.57;;
35294;SDS011;21413;48.032;7.764;2023-05-29T00:21:02;9.60;;;8.03;;
35294;SDS011;21413;48.032;7.764;2023-05-29T00:23:28;10.57;;;7.70;;
35294;SDS011;21413;48.032;7.764;2023-05-29T00:25:55;9.63;;;7.63;;
35294;SDS011;21413;48.032;7.764;2023-05-29T00:28:23;9.20;;;7.57;;
35294;SDS011;21413;48.032;7.764;2023-05-29T00:30:49;7.47;;;6.73;;
35294;SDS011;21413;48.032;7.764;2023-05-29T00:33:15;21.63;;;7.60;;
35294;SDS011;21413;48.032;7.764;2023-05-29T00:35:45;13.33;;;8.20;;
35294;SDS011;21413;48.032;7.764;2023-05-29T00:38:14;10.60;;;7.93;;
35294;SDS011;21413;48.032;7.764;2023-05-29T00:40:40;11.47;;;7.80;;
35294;SDS011;21413;48.032;7.764;2023-05-29T00:43:06;9.07;;;8.10;;
35294;SDS011;21413;48.032;7.764;2023-05-29T00:45:34;19.27;;;8.03;;
35294;SDS011;21413;48.032;7.764;2023-05-29T00:48:04;15.87;;;9.37;;
35294;SDS011;21413;48.032;7.764;2023-05-29T00:50:30;12.03;;;8.10;;
35294;SDS011;21413;48.032;7.764;2023-05-29T00:52:57;8.10;;;7.00;;
35294;SDS011;21413;48.032;7.764;2023-05-29T00:55:24;11.83;;;8.00;;
35294;SDS011;21413;48.032;7.764;2023-05-29T00:57:50;8.03;;;7.30;;
35294;SDS011;21413;48.032;7.764;2023-05-29T01:00:17;11.03;;;8.13;;
35294;SDS011;21413;48.032;7.764;2023-05-29T01:02:45;12.30;;;7.90;;
35294;SDS011;21413;48.032;7.764;2023-05-29T01:05:12;13.23;;;8.00;;
35294;SDS011;21413;48.032;7.764;2023-05-29T01:07:42;8.77;;;7.97;;
35294;SDS011;21413;48.032;7.764;2023-05-29T01:10:08;8.70;;;7.53;;
35294;SDS011;21413;48.032;7.764;2023-05-29T01:15:24;10.10;;;8.30;;
35294;SDS011;21413;48.032;7.764;2023-05-29T01:23:06;12.30;;;8.77;;
35294;SDS011;21413;48.032;7.764;2023-05-29T01:28:16;8.20;;;7.40;;
35294;SDS011;21413;48.032;7.764;2023-05-29T01:30:46;8.57;;;7.53;;
35294;SDS011;21413;48.032;7.764;2023-05-29T01:33:12;8.70;;;7.70;;
35294;SDS011;21413;48.032;7.764;2023-05-29T01:35:38;10.50;;;8.10;;
35294;SDS011;21413;48.032;7.764;2023-05-29T01:38:04;11.97;;;8.20;;
35294;SDS011;21413;48.032;7.764;2023-05-29T01:40:33;13.20;;;8.50;;
35294;SDS011;21413;48.032;7.764;2023-05-29T01:42:59;10.53;;;7.90;;
35294;SDS011;21413;48.032;7.764;2023-05-29T01:45:25;11.33;;;7.73;;
35294;SDS011;21413;48.032;7.764;2023-05-29T01:47:54;17.50;;;8.53;;
35294;SDS011;21413;48.032;7.764;2023-05-29T01:50:20;12.27;;;7.90;;
35294;SDS011;21413;48.032;7.764;2023-05-29T01:52:48;12.57;;;8.20;;
35294;SDS011;21413;48.032;7.764;2023-05-29T01:55:14;7.90;;;7.10;;
35294;SDS011;21413;48.032;7.764;2023-05-29T01:57:40;9.57;;;7.90;;
35294;SDS011;21413;48.032;7.764;2023-05-29T02:00:07;9.57;;;8.40;;
35294;SDS011;21413;48.032;7.764;2023-05-29T02:02:39;12.40;;;8.30;;
35294;SDS011;21413;48.032;7.764;2023-05-29T02:05:06;15.10;;;9.97;;
35294;SDS011;21413;48.032;7.764;2023-05-29T02:07:33;13.30;;;10.27;;
35294;SDS011;21413;48.032;7.764;2023-05-29T02:10:01;13.47;;;10.27;;
35294;SDS011;21413;48.032;7.764;2023-05-29T02:12:27;13.07;;;10.77;;
35294;SDS011;21413;48.032;7.764;2023-05-29T02:14:54;10.40;;;9.30;;
35294;SDS011;21413;48.032;7.764;2023-05-29T02:17:20;11.23;;;9.60;;
35294;SDS011;21413;48.032;7.764;2023-05-29T02:19:45;13.80;;;8.63;;
35294;SDS011;21413;48.032;7.764;2023-05-29T02:22:11;11.93;;;8.57;;
35294;SDS011;21413;48.032;7.764;2023-05-29T02:24:40;12.53;;;8.43;;
35294;SDS011;21413;48.032;7.764;2023-05-29T02:27:06;10.90;;;8.00;;
35294;SDS011;21413;48.032;7.764;2023-05-29T02:29:32;9.17;;;8.03;;
35294;SDS011;21413;48.032;7.764;2023-05-29T02:32:00;10.90;;;7.80;;
35294;SDS011;21413;48.032;7.764;2023-05-29T02:34:26;11.53;;;7.43;;
35294;SDS011;21413;48.032;7.764;2023-05-29T02:36:54;8.67;;;7.60;;
35294;SDS011;21413;48.032;7.764;2023-05-29T02:39:25;15.43;;;8.27;;
35294;SDS011;21413;48.032;7.764;2023-05-29T02:41:53;10.70;;;8.10;;
35294;SDS011;21413;48.032;7.764;2023-05-29T02:44:20;12.07;;;7.40;;
35294;SDS011;21413;48.032;7.764;2023-05-29T02:46:46;12.03;;;8.30;;
35294;SDS011;21413;48.032;7.764;2023-05-29T02:49:12;11.20;;;8.67;;
35294;SDS011;21413;48.032;7.764;2023-05-29T02:51:38;15.60;;;8.50;;
35294;SDS011;21413;48.032;7.764;2023-05-29T02:54:06;13.17;;;9.40;;
35294;SDS011;21413;48.032;7.764;2023-05-29T02:56:32;12.93;;;8.37;;
35294;SDS011;21413;48.032;7.764;2023-05-29T02:58:59;14.60;;;9.80;;
35294;SDS011;21413;48.032;7.764;2023-05-29T03:01:25;10.27;;;8.07;;
35294;SDS011;21413;48.032;7.764;2023-05-29T03:03:51;14.87;;;9.10;;
35294;SDS011;21413;48.032;7.764;2023-05-29T03:06:17;17.03;;;9.27;;
35294;SDS011;21413;48.032;7.764;2023-05-29T03:08:43;20.60;;;9.00;;
35294;SDS011;21413;48.032;7.764;2023-05-29T03:11:11;15.10;;;8.13;;
35294;SDS011;21413;48.032;7.764;2023-05-29T03:13:40;9.73;;;8.30;;
35294;SDS011;21413;48.032;7.764;2023-05-29T03:16:06;10.27;;;8.10;;
35294;SDS011;21413;48.032;7.764;2023-05-29T03:18:37;12.33;;;8.40;;
35294;SDS011;21413;48.032;7.764;2023-05-29T03:21:05;9.57;;;8.03;;
35294;SDS011;21413;48.032;7.764;2023-05-29T03:23:31;17.07;;;8.93;;
35294;SDS011;21413;48.032;7.764;2023-05-29T03:25:57;12.13;;;8.57;;
35294;SDS011;21413;48.032;7.764;2023-05-29T03:28:25;15.20;;;8.97;;
35294;SDS011;21413;48.032;7.764;2023-05-29T03:30:51;15.20;;;9.10;;
35294;SDS011;21413;48.032;7.764;2023-05-29T03:33:22;10.13;;;8.23;;
35294;SDS011;21413;48.032;7.764;2023-05-29T03:35:48;13.60;;;8.40;;
35294;SDS011;21413;48.032;7.764;2023-05-29T03:38:14;9.40;;;8.50;;
35294;SDS011;21413;48.032;7.764;2023-05-29T03:40:40;10.50;;;8.43;;
35294;SDS011;21413;48.032;7.764;2023-05-29T03:43:06;12.20;;;8.33;;
35294;SDS011;21413;48.032;7.764;2023-05-29T03:45:32;14.73;;;9.67;;
35294;SDS011;21413;48.032;7.764;2023-05-29T03:47:58;9.87;;;8.87;;
35294;SDS011;21413;48.032;7.764;2023-05-29T03:50:24;14.33;;;8.77;;
35294;SDS011;21413;48.032;7.764;2023-05-29T03:52:53;12.67;;;8.37;;
35294;SDS011;21413;48.032;7.764;2023-05-29T03:55:18;9.70;;;8.10;;
35294;SDS011;21413;48.032;7.764;2023-05-29T03:57:47;15.63;;;8.83;;
35294;SDS011;21413;48.032;7.764;2023-05-29T04:00:13;11.53;;;8.33;;
35294;SDS011;21413;48.032;7.764;2023-05-29T04:02:40;18.03;;;9.20;;
35294;SDS011;21413;48.032;7.764;2023-05-29T04:05:08;14.70;;;9.53;;
35294;SDS011;21413;48.032;7.764;2023-05-29T04:07:35;10.97;;;8.20;;
35294;SDS011;21413;48.032;7.764;2023-05-29T04:10:07;13.40;;;8.80;;
35294;SDS011;21413;48.032;7.764;2023-05-29T04:12:33;14.67;;;9.57;;
35294;SDS011;21413;48.032;7.764;2023-05-29T04:14:59;15.40;;;9.33;;
35294;SDS011;21413;48.032;7.764;2023-05-29T04:17:25;11.67;;;8.23;;
35294;SDS011;21413;48.032;7.764;2023-05-29T04:19:51;11.23;;;8.77;;
35294;SDS011;21413;48.032;7.764;2023-05-29T04:22:19;20.93;;;8.40;;
35294;SDS011;21413;48.032;7.764;2023-05-29T04:24:48;10.50;;;7.80;;
35294;SDS011;21413;48.032;7.764;2023-05-29T04:27:14;10.57;;;8.47;;
35294;SDS011;21413;48.032;7.764;2023-05-29T04:29:40;12.53;;;7.63;;
35294;SDS011;21413;48.032;7.764;2023-05-29T04:32:07;13.43;;;8.13;;
35294;SDS011;21413;48.032;7.764;2023-05-29T04:34:37;12.00;;;8.13;;
35294;SDS011;21413;48.032;7.764;2023-05-29T04:37:08;9.13;;;7.20;;
35294;SDS011;21413;48.032;7.764;2023-05-29T04:39:34;8.03;;;7.03;;
35294;SDS011;21413;48.032;7.764;2023-05-29T04:42:01;14.93;;;8.10;;
35294;SDS011;21413;48.032;7.764;2023-05-29T04:44:30;11.37;;;8.10;;
35294;SDS011;21413;48.032;7.764;2023-05-29T04:46:56;8.80;;;7.87;;
35294;SDS011;21413;48.032;7.764;2023-05-29T04:49:28;14.00;;;9.10;;
35294;SDS011;21413;48.032;7.764;2023-05-29T04:51:54;14.80;;;7.90;;
35294;SDS011;21413;48.032;7.764;2023-05-29T04:54:21;12.40;;;7.83;;
35294;SDS011;21413;48.032;7.764;2023-05-29T04:56:48;19.27;;;15.77;;
35294;SDS011;21413;48.032;7.764;2023-05-29T04:59:16;18.40;;;12.00;;
35294;SDS011;21413;48.032;7.764;2023-05-29T05:01:42;14.17;;;11.17;;
35294;SDS011;21413;48.032;7.764;2023-05-29T05:04:09;26.07;;;16.03;;
35294;SDS011;21413;48.032;7.764;2023-05-29T05:06:35;11.97;;;8.63;;
35294;SDS011;21413;48.032;7.764;2023-05-29T05:09:05;11.17;;;8.80;;
35294;SDS011;21413;48.032;7.764;2023-05-29T05:11:33;15.70;;;9.77;;
35294;SDS011;21413;48.032;7.764;2023-05-29T05:13:59;10.43;;;8.60;;
35294;SDS011;21413;48.032;7.764;2023-05-29T05:16:25;13.27;;;9.00;;
35294;SDS011;21413;48.032;7.764;2023-05-29T05:18:51;11.77;;;7.90;;
35294;SDS011;21413;48.032;7.764;2023-05-29T05:21:19;13.53;;;9.00;;
35294;SDS011;21413;48.032;7.764;2023-05-29T05:23:45;12.07;;;8.70;;
35294;SDS011;21413;48.032;7.764;2023-05-29T05:26:11;11.10;;;8.77;;
35294;SDS011;21413;48.032;7.764;2023-05-29T05:28:40;11.30;;;8.90;;
35294;SDS011;21413;48.032;7.764;2023-05-29T05:31:06;12.07;;;8.93;;
35294;SDS011;21413;48.032;7.764;2023-05-29T05:33:32;12.93;;;9.53;;
35294;SDS011;21413;48.032;7.764;2023-05-29T05:35:58;13.40;;;8.57;;
35294;SDS011;21413;48.032;7.764;2023-05-29T05:38:24;11.40;;;8.97;;
35294;SDS011;21413;48.032;7.764;2023-05-29T05:40:55;13.17;;;7.53;;
35294;SDS011;21413;48.032;7.764;2023-05-29T05:43:21;25.43;;;21.07;;
35294;SDS011;21413;48.032;7.764;2023-05-29T05:45:47;14.60;;;9.97;;
35294;SDS011;21413;48.032;7.764;2023-05-29T05:48:18;10.00;;;7.67;;
35294;SDS011;21413;48.032;7.764;2023-05-29T05:50:44;14.33;;;7.20;;
35294;SDS011;21413;48.032;7.764;2023-05-29T05:53:10;12.03;;;7.30;;
35294;SDS011;21413;48.032;7.764;2023-05-29T05:55:36;9.60;;;7.60;;
35294;SDS011;21413;48.032;7.764;2023-05-29T05:58:02;8.77;;;7.87;;
35294;SDS011;21413;48.032;7.764;2023-05-29T06:00:28;10.87;;;7.23;;
35294;SDS011;21413;48.032;7.764;2023-05-29T06:02:54;15.63;;;8.13;;
35294;SDS011;21413;48.032;7.764;2023-05-29T06:05:20;14.03;;;8.10;;
35294;SDS011;21413;48.032;7.764;2023-05-29T06:07:46;13.53;;;8.00;;
35294;SDS011;21413;48.032;7.764;2023-05-29T06:10:15;9.67;;;7.10;;
35294;SDS011;21413;48.032;7.764;2023-05-29T06:12:41;8.30;;;7.10;;
35294;SDS011;21413;48.032;7.764;2023-05-29T06:15:07;12.60;;;7.83;;
35294;SDS011;21413;48.032;7.764;2023-05-29T06:17:33;10.30;;;7.77;;
35294;SDS011;21413;48.032;7.764;2023-05-29T06:20:00;9.83;;;6.77;;
35294;SDS011;21413;48.032;7.764;2023-05-29T06:22:25;18.90;;;14.67;;
35294;SDS011;21413;48.032;7.764;2023-05-29T06:24:51;11.30;;;6.53;;
35294;SDS011;21413;48.032;7.764;2023-05-29T06:27:17;11.53;;;6.77;;
35294;SDS011;21413;48.032;7.764;2023-05-29T06:29:48;9.27;;;6.47;;
35294;SDS011;21413;48.032;7.764;2023-05-29T06:32:14;7.80;;;7.07;;
35294;SDS011;21413;48.032;7.764;2023-05-29T06:34:41;8.57;;;6.60;;
35294;SDS011;21413;48.032;7.764;2023-05-29T06:37:07;11.87;;;6.40;;
35294;SDS011;21413;48.032;7.764;2023-05-29T06:39:34;26.63;;;19.80;;
35294;SDS011;21413;48.032;7.764;2023-05-29T06:42:00;9.43;;;7.37;;
35294;SDS011;21413;48.032;7.764;2023-05-29T06:44:28;7.90;;;6.83;;
35294;SDS011;21413;48.032;7.764;2023-05-29T06:46:54;7.40;;;6.73;;
35294;SDS011;21413;48.032;7.764;2023-05-29T06:49:21;7.27;;;6.37;;
35294;SDS011;21413;48.032;7.764;2023-05-29T06:51:46;9.00;;;6.40;;
35294;SDS011;21413;48.032;7.764;2023-05-29T06:54:15;10.60;;;7.00;;
35294;SDS011;21413;48.032;7.764;2023-05-29T06:56:41;9.93;;;7.20;;
35294;SDS011;21413;48.032;7.764;2023-05-29T06:59:07;10.47;;;6.57;;
35294;SDS011;21413;48.032;7.764;2023-05-29T07:01:33;8.20;;;6.03;;
35294;SDS011;21413;48.032;7.764;2023-05-29T07:04:03;7.77;;;6.53;;
35294;SDS011;21413;48.032;7.764;2023-05-29T07:06:29;9.80;;;6.70;;
35294;SDS011;21413;48.032;7.764;2023-05-29T07:08:55;8.70;;;6.03;;
35294;SDS011;21413;48.032;7.764;2023-05-29T07:11:21;6.77;;;5.53;;
35294;SDS011;21413;48.032;7.764;2023-05-29T07:13:47;14.60;;;7.27;;
35294;SDS011;21413;48.032;7.764;2023-05-29T07:16:13;10.03;;;6.10;;
35294;SDS011;21413;48.032;7.764;2023-05-29T07:18:39;10.50;;;6.03;;
35294;SDS011;21413;48.032;7.764;2023-05-29T07:21:05;12.23;;;7.70;;
35294;SDS011;21413;48.032;7.764;2023-05-29T07:23:31;12.57;;;6.13;;
35294;SDS011;21413;48.032;7.764;2023-05-29T07:25:57;8.90;;;6.30;;
35294;SDS011;21413;48.032;7.764;2023-05-29T07:28:23;9.13;;;5.60;;
35294;SDS011;21413;48.032;7.764;2023-05-29T07:30:49;7.73;;;6.50;;
35294;SDS011;21413;48.032;7.764;2023-05-29T07:33:15;10.53;;;5.97;;
35294;SDS011;21413;48.032;7.764;2023-05-29T07:35:41;6.73;;;5.57;;
35294;SDS011;21413;48.032;7.764;2023-05-29T07:38:07;8.20;;;6.10;;
35294;SDS011;21413;48.032;7.764;2023-05-29T07:40:35;8.50;;;5.40;;
35294;SDS011;21413;48.032;7.764;2023-05-29T07:43:01;6.00;;;5.50;;
35294;SDS011;21413;48.032;7.764;2023-05-29T07:45:27;9.90;;;6.00;;
35294;SDS011;21413;48.032;7.764;2023-05-29T07:47:53;11.07;;;5.90;;
35294;SDS011;21413;48.032;7.764;2023-05-29T07:50:21;7.60;;;6.00;;
35294;SDS011;21413;48.032;7.764;2023-05-29T07:52:47;14.53;;;11.90;;
35294;SDS011;21413;48.032;7.764;2023-05-29T07:55:14;5.73;;;5.23;;
35294;SDS011;21413;48.032;7.764;2023-05-29T07:57:42;7.07;;;5.30;;
35294;SDS011;21413;48.032;7.764;2023-05-29T08:00:08;5.57;;;5.10;;
35294;SDS011;21413;48.032;7.764;2023-05-29T08:02:38;6.53;;;5.37;;
35294;SDS011;21413;48.032;7.764;2023-05-29T08:05:04;5.00;;;4.63;;
35294;SDS011;21413;48.032;7.764;2023-05-29T08:07:32;6.20;;;5.60;;
35294;SDS011;21413;48.032;7.764;2023-05-29T08:10:01;5.30;;;4.80;;
35294;SDS011;21413;48.032;7.764;2023-05-29T08:12:27;13.27;;;5.40;;
35294;SDS011;21413;48.032;7.764;2023-05-29T08:14:53;9.23;;;5.47;;
35294;SDS011;21413;48.032;7.764;2023-05-29T08:17:19;7.87;;;5.40;;
35294;SDS011;21413;48.032;7.764;2023-05-29T08:19:45;7.30;;;5.90;;
35294;SDS011;21413;48.032;7.764;2023-05-29T08:22:12;5.80;;;5.30;;
35294;SDS011;21413;48.032;7.764;2023-05-29T08:24:38;7.37;;;5.17;;
35294;SDS011;21413;48.032;7.764;2023-05-29T08:27:04;9.10;;;5.13;;
35294;SDS011;21413;48.032;7.764;2023-05-29T08:29:30;6.47;;;5.40;;
35294;SDS011;21413;48.032;7.764;2023-05-29T08:31:56;7.03;;;4.83;;
35294;SDS011;21413;48.032;7.764;2023-05-29T08:34:22;5.90;;;5.33;;
35294;SDS011;21413;48.032;7.764;2023-05-29T08:36:48;8.70;;;5.70;;
35294;SDS011;21413;48.032;7.764;2023-05-29T08:39:16;5.80;;;4.30;;
35294;SDS011;21413;48.032;7.764;2023-05-29T08:44:12;8.20;;;5.43;;
35294;SDS011;21413;48.032;7.764;2023-05-29T08:46:39;6.93;;;4.50;;
35294;SDS011;21413;48.032;7.764;2023-05-29T08:49:05;6.40;;;5.30;;
35294;SDS011;21413;48.032;7.764;2023-05-29T08:51:32;6.20;;;4.73;;
35294;SDS011;21413;48.032;7.764;2023-05-29T08:54:00;4.97;;;4.57;;
35294;SDS011;21413;48.032;7.764;2023-05-29T08:56:27;18.13;;;14.70;;
35294;SDS011;21413;48.032;7.764;2023-05-29T08:58:55;7.73;;;7.10;;
35294;SDS011;21413;48.032;7.764;2023-05-29T09:01:22;10.63;;;4.90;;
35294;SDS011;21413;48.032;7.764;2023-05-29T09:03:49;5.30;;;4.80;;
35294;SDS011;21413;48.032;7.764;2023-05-29T09:06:17;8.40;;;5.20;;
35294;SDS011;21413;48.032;7.764;2023-05-29T09:08:43;5.33;;;4.93;;
35294;SDS011;21413;48.032;7.764;2023-05-29T09:11:09;6.13;;;4.70;;
35294;SDS011;21413;48.032;7.764;2023-05-29T09:13:35;5.60;;;4.90;;
35294;SDS011;21413;48.032;7.764;2023-05-29T09:16:01;5.47;;;4.97;;
35294;SDS011;21413;48.032;7.764;2023-05-29T09:18:31;4.90;;;4.50;;
35294;SDS011;21413;48.032;7.764;2023-05-29T09:20:58;5.57;;;5.00;;
35294;SDS011;21413;48.032;7.764;2023-05-29T09:23:25;7.63;;;4.97;;
35294;SDS011;21413;48.032;7.764;2023-05-29T09:25:54;5.10;;;4.70;;
35294;SDS011;21413;48.032;7.764;2023-05-29T09:28:22;5.33;;;4.27;;
35294;SDS011;21413;48.032;7.764;2023-05-29T09:30:52;8.80;;;7.50;;
35294;SDS011;21413;48.032;7.764;2023-05-29T09:33:18;7.63;;;4.70;;
35294;SDS011;21413;48.032;7.764;2023-05-29T09:35:46;11.40;;;4.67;;
35294;SDS011;21413;48.032;7.764;2023-05-29T09:38:16;9.10;;;4.57;;
35294;SDS011;21413;48.032;7.764;2023-05-29T09:40:42;8.30;;;4.53;;
35294;SDS011;21413;48.032;7.764;2023-05-29T09:43:12;14.03;;;4.90;;
35294;SDS011;21413;48.032;7.764;2023-05-29T09:45:39;5.57;;;4.90;;
35294;SDS011;21413;48.032;7.764;2023-05-29T09:48:12;5.73;;;4.47;;
35294;SDS011;21413;48.032;7.764;2023-05-29T09:50:39;9.50;;;4.80;;
35294;SDS011;21413;48.032;7.764;2023-05-29T09:55:48;5.20;;;4.60;;
35294;SDS011;21413;48.032;7.764;2023-05-29T09:58:15;9.10;;;4.70;;
35294;SDS011;21413;48.032;7.764;2023-05-29T10:00:44;8.90;;;4.87;;
35294;SDS011;21413;48.032;7.764;2023-05-29T10:03:10;5.53;;;5.07;;
35294;SDS011;21413;48.032;7.764;2023-05-29T10:05:39;4.43;;;4.00;;
35294;SDS011;21413;48.032;7.764;2023-05-29T10:08:16;4.60;;;4.20;;
35294;SDS011;21413;48.032;7.764;2023-05-29T10:10:43;14.83;;;5.40;;
35294;SDS011;21413;48.032;7.764;2023-05-29T10:13:11;5.63;;;4.20;;
35294;SDS011;21413;48.032;7.764;2023-05-29T10:15:38;4.60;;;4.30;;
35294;SDS011;21413;48.032;7.764;2023-05-29T10:18:18;5.43;;;4.60;;
35294;SDS011;21413;48.032;7.764;2023-05-29T10:20:47;5.53;;;4.63;;
35294;SDS011;21413;48.032;7.764;2023-05-29T10:23:19;8.13;;;5.33;;
35294;SDS011;21413;48.032;7.764;2023-05-29T10:25:48;4.57;;;4.23;;
35294;SDS011;21413;48.032;7.764;2023-05-29T10:28:15;9.83;;;4.40;;
35294;SDS011;21413;48.032;7.764;2023-05-29T10:30:43;12.43;;;4.77;;
35294;SDS011;21413;48.032;7.764;2023-05-29T10:33:23;4.93;;;4.53;;
35294;SDS011;21413;48.032;7.764;2023-05-29T10:38:31;6.00;;;5.10;;
35294;SDS011;21413;48.032;7.764;2023-05-29T10:41:43;6.23;;;4.33;;
35294;SDS011;21413;48.032;7.764;2023-05-29T10:43:44;4.57;;;4.27;;
35294;SDS011;21413;48.032;7.764;2023-05-29T10:46:12;7.40;;;4.60;;
35294;SDS011;21413;48.032;7.764;2023-05-29T10:48:39;7.33;;;4.77;;
35294;SDS011;21413;48.032;7.764;2023-05-29T10:51:06;4.80;;;4.17;;
35294;SDS011;21413;48.032;7.764;2023-05-29T10:53:37;19.47;;;5.37;;
35294;SDS011;21413;48.032;7.764;2023-05-29T10:56:07;5.03;;;4.70;;
35294;SDS011;21413;48.032;7.764;2023-05-29T10:58:36;13.93;;;5.37;;
35294;SDS011;21413;48.032;7.764;2023-05-29T11:01:02;11.17;;;4.43;;
35294;SDS011;21413;48.032;7.764;2023-05-29T11:03:31;5.47;;;4.10;;
35294;SDS011;21413;48.032;7.764;2023-05-29T11:05:58;7.40;;;4.60;;
35294;SDS011;21413;48.032;7.764;2023-05-29T11:08:46;4.10;;;3.90;;
35294;SDS011;21413;48.032;7.764;2023-05-29T11:11:14;12.33;;;4.77;;
35294;SDS011;21413;48.032;7.764;2023-05-29T11:13:40;12.97;;;10.43;;
35294;SDS011;21413;48.032;7.764;2023-05-29T11:16:13;6.10;;;4.70;;
35294;SDS011;21413;48.032;7.764;2023-05-29T11:18:40;8.00;;;5.17;;
35294;SDS011;21413;48.032;7.764;2023-05-29T11:21:12;9.73;;;4.80;;
35294;SDS011;21413;48.032;7.764;2023-05-29T11:23:41;4.87;;;4.40;;
35294;SDS011;21413;48.032;7.764;2023-05-29T11:26:08;4.43;;;4.17;;
35294;SDS011;21413;48.032;7.764;2023-05-29T11:28:34;5.13;;;4.50;;
35294;SDS011;21413;48.032;7.764;2023-05-29T11:31:01;5.37;;;3.87;;
35294;SDS011;21413;48.032;7.764;2023-05-29T11:33:33;8.30;;;4.53;;
35294;SDS011;21413;48.032;7.764;2023-05-29T11:36:01;7.93;;;4.60;;
35294;SDS011;21413;48.032;7.764;2023-05-29T11:38:27;6.17;;;4.47;;
35294;SDS011;21413;48.032;7.764;2023-05-29T11:40:54;8.40;;;4.53;;
35294;SDS011;21413;48.032;7.764;2023-05-29T11:43:20;6.47;;;4.00;;
35294;SDS011;21413;48.032;7.764;2023-05-29T11:45:46;4.70;;;4.30;;
35294;SDS011;21413;48.032;7.764;2023-05-29T11:48:12;5.50;;;5.00;;
35294;SDS011;21413;48.032;7.764;2023-05-29T11:50:38;4.77;;;4.10;;
35294;SDS011;21413;48.032;7.764;2023-05-29T11:53:05;5.40;;;4.90;;
35294;SDS011;21413;48.032;7.764;2023-05-29T11:55:32;4.67;;;4.37;;
35294;SDS011;21413;48.032;7.764;2023-05-29T11:57:59;11.50;;;5.40;;
35294;SDS011;21413;48.032;7.764;2023-05-29T12:00:25;5.27;;;4.23;;
35294;SDS011;21413;48.032;7.764;2023-05-29T12:02:58;6.50;;;4.80;;
35294;SDS011;21413;48.032;7.764;2023-05-29T12:05:30;6.00;;;4.30;;
35294;SDS011;21413;48.032;7.764;2023-05-29T12:07:57;4.87;;;4.60;;
35294;SDS011;21413;48.032;7.764;2023-05-29T12:10:26;5.93;;;4.93;;
35294;SDS011;21413;48.032;7.764;2023-05-29T12:12:53;4.83;;;4.43;;
35294;SDS011;21413;48.032;7.764;2023-05-29T12:15:20;6.23;;;4.70;;
35294;SDS011;21413;48.032;7.764;2023-05-29T12:17:47;4.70;;;4.50;;
35294;SDS011;21413;48.032;7.764;2023-05-29T12:20:13;7.03;;;4.90;;
35294;SDS011;21413;48.032;7.764;2023-05-29T12:22:42;9.60;;;4.57;;
35294;SDS011;21413;48.032;7.764;2023-05-29T12:27:35;4.70;;;4.40;;
35294;SDS011;21413;48.032;7.764;2023-05-29T12:30:08;5.33;;;4.60;;
35294;SDS011;21413;48.032;7.764;2023-05-29T12:32:37;5.47;;;4.93;;
35294;SDS011;21413;48.032;7.764;2023-05-29T12:35:10;4.43;;;4.23;;
35294;SDS011;21413;48.032;7.764;2023-05-29T12:37:41;5.07;;;4.70;;
35294;SDS011;21413;48.032;7.764;2023-05-29T12:40:14;5.30;;;4.43;;
35294;SDS011;21413;48.032;7.764;2023-05-29T12:42:41;5.57;;;4.40;;
35294;SDS011;21413;48.032;7.764;2023-05-29T12:45:07;4.30;;;3.90;;
35294;SDS011;21413;48.032;7.764;2023-05-29T12:47:34;4.77;;;4.10;;
35294;SDS011;21413;48.032;7.764;2023-05-29T12:50:04;4.97;;;4.43;;
35294;SDS011;21413;48.032;7.764;2023-05-29T12:52:30;4.80;;;4.40;;
35294;SDS011;21413;48.032;7.764;2023-05-29T12:54:58;4.70;;;4.20;;
35294;SDS011;21413;48.032;7.764;2023-05-29T12:57:24;8.37;;;4.40;;
35294;SDS011;21413;48.032;7.764;2023-05-29T12:59:53;5.20;;;4.70;;
35294;SDS011;21413;48.032;7.764;2023-05-29T13:02:23;4.20;;;4.00;;
35294;SDS011;21413;48.032;7.764;2023-05-29T13:04:49;5.40;;;4.90;;
35294;SDS011;21413;48.032;7.764;2023-05-29T13:07:15;9.07;;;4.93;;
35294;SDS011;21413;48.032;7.764;2023-05-29T13:09:41;6.60;;;5.00;;
35294;SDS011;21413;48.032;7.764;2023-05-29T13:12:10;5.27;;;4.77;;
35294;SDS011;21413;48.032;7.764;2023-05-29T13:14:36;5.40;;;4.73;;
35294;SDS011;21413;48.032;7.764;2023-05-29T13:17:02;5.37;;;4.97;;
35294;SDS011;21413;48.032;7.764;2023-05-29T13:19:28;5.90;;;4.30;;
35294;SDS011;21413;48.032;7.764;2023-05-29T13:21:54;4.70;;;4.00;;
35294;SDS011;21413;48.032;7.764;2023-05-29T13:24:20;5.47;;;4.97;;
35294;SDS011;21413;48.032;7.764;2023-05-29T13:26:46;5.93;;;5.07;;
35294;SDS011;21413;48.032;7.764;2023-05-29T13:29:12;5.30;;;4.87;;
35294;SDS011;21413;48.032;7.764;2023-05-29T13:31:38;4.47;;;4.17;;
35294;SDS011;21413;48.032;7.764;2023-05-29T13:34:04;5.67;;;5.10;;
35294;SDS011;21413;48.032;7.764;2023-05-29T13:36:30;6.10;;;4.83;;
35294;SDS011;21413;48.032;7.764;2023-05-29T13:38:56;8.43;;;5.17;;
35294;SDS011;21413;48.032;7.764;2023-05-29T13:41:24;5.07;;;4.67;;
35294;SDS011;21413;48.032;7.764;2023-05-29T13:43:50;6.23;;;4.67;;
35294;SDS011;21413;48.032;7.764;2023-05-29T13:46:21;5.20;;;4.67;;
35294;SDS011;21413;48.032;7.764;2023-05-29T13:48:47;5.53;;;5.13;;
35294;SDS011;21413;48.032;7.764;2023-05-29T13:51:13;6.23;;;4.63;;
35294;SDS011;21413;48.032;7.764;2023-05-29T13:53:39;7.40;;;4.53;;
35294;SDS011;21413;48.032;7.764;2023-05-29T13:56:05;4.53;;;4.17;;
35294;SDS011;21413;48.032;7.764;2023-05-29T13:58:33;5.20;;;4.40;;
35294;SDS011;21413;48.032;7.764;2023-05-29T14:01:02;4.60;;;4.20;;
35294;SDS011;21413;48.032;7.764;2023-05-29T14:03:28;8.43;;;5.23;;
35294;SDS011;21413;48.032;7.764;2023-05-29T14:05:54;5.60;;;4.50;;
35294;SDS011;21413;48.032;7.764;2023-05-29T14:08:20;5.07;;;4.70;;
35294;SDS011;21413;48.032;7.764;2023-05-29T14:10:46;6.27;;;4.03;;
35294;SDS011;21413;48.032;7.764;2023-05-29T14:13:14;5.97;;;4.20;;
35294;SDS011;21413;48.032;7.764;2023-05-29T14:15:40;5.93;;;4.60;;
35294;SDS011;21413;48.032;7.764;2023-05-29T14:18:06;5.73;;;5.13;;
35294;SDS011;21413;48.032;7.764;2023-05-29T14:20:33;5.17;;;4.67;;
35294;SDS011;21413;48.032;7.764;2023-05-29T14:22:59;4.70;;;4.50;;
35294;SDS011;21413;48.032;7.764;2023-05-29T14:25:27;5.20;;;4.70;;
35294;SDS011;21413;48.032;7.764;2023-05-29T14:27:53;5.33;;;5.03;;
35294;SDS011;21413;48.032;7.764;2023-05-29T14:30:19;5.37;;;4.93;;
35294;SDS011;21413;48.032;7.764;2023-05-29T14:32:45;5.20;;;4.70;;
35294;SDS011;21413;48.032;7.764;2023-05-29T14:35:11;5.30;;;4.80;;
35294;SDS011;21413;48.032;7.764;2023-05-29T14:37:39;5.33;;;4.93;;
35294;SDS011;21413;48.032;7.764;2023-05-29T14:40:05;5.03;;;4.63;;
35294;SDS011;21413;48.032;7.764;2023-05-29T14:42:34;5.23;;;4.70;;
35294;SDS011;21413;48.032;7.764;2023-05-29T14:45:00;4.77;;;4.30;;
35294;SDS011;21413;48.032;7.764;2023-05-29T14:47:28;4.30;;;3.80;;
35294;SDS011;21413;48.032;7.764;2023-05-29T14:49:54;4.60;;;4.40;;
35294;SDS011;21413;48.032;7.764;2023-05-29T14:52:22;5.50;;;5.10;;
35294;SDS011;21413;48.032;7.764;2023-05-29T14:54:51;4.73;;;4.53;;
35294;SDS011;21413;48.032;7.764;2023-05-29T14:57:17;6.80;;;4.83;;
35294;SDS011;21413;48.032;7.764;2023-05-29T14:59:43;5.80;;;5.40;;
35294;SDS011;21413;48.032;7.764;2023-05-29T15:02:11;5.30;;;4.80;;